Bucoda, WA

7:52 AM PDT on October 01, 2014 (GMT -0700)
Old Mill Estates | Change Station
CLOSE
Current Station
Personal Weather Station
Location: Bucoda, WA
Elevation: 233 ft
Nearby Weather Stations

Elev 233 ft 46.79 °N, 122.87 °W | Updated 6 seconds ago

Fog
Fog
42.3 °F
Feels Like 42 °F
N
0.0
Wind Variable Wind from WSW
Gusts 0.0 mph

Today
High -- | Low -- °F
--% Chance of Precip.
Yesterday
High -- | Low -- °F
Precip. -- in
7:10 AM 6:50 PM
Waxing Crescent, 48% visible
Pressure 30.09 in
Visibility 10.0 miles
Clouds Scattered Clouds 3500 ft
Windchill 42 °F
Dew Point 42 °F
Humidity 98%
Rainfall 0.00 in
Snow Depth 0 in , 0 in , 0 in
UV 0 out of 12
Pollen 1.20 out of 12
PM2.5 Good
Flu Activity Not available.
METAR KCLS 301455Z AUTO 20004KT 10SM SCT035 10/10 A3009 RMK AO2

More Conditions Fewer Conditions

Pressure 30.09 in
Visibility 10.0 miles
Clouds Scattered Clouds 3500 ft
Windchill 42 °F
Dew Point 42 °F
Humidity 98%
Rainfall 0.00 in
Snow Depth 0 in , 0 in , 0 in
UV 0 out of 12
Pollen 1.20 out of 12
PM2.5 Good
Flu Activity Not available.
METAR KCLS 301455Z AUTO 20004KT 10SM SCT035 10/10 A3009 RMK AO2

More Conditions Fewer Conditions

10-Day Weather Forecast

Almanac

Astronomy

Oct. 01, 2014 Rise Set
Actual Time 7:10 AM PDT 6:50 PM PDT
Civil Twilight 6:40 AM PDT 7:21 PM PDT
Nautical Twilight 6:04 AM PDT 7:56 PM PDT
Astronomical Twilight 5:29 AM PDT 8:31 PM PDT
Moon 2:31 PM PDT No Moon Set
Length of Visible Light 12h 41m
Length of Day
11h 40m
Tomorrow will be 3m 18s shorter.
Waxing Crescent, 48% of the Moon is Illuminated
Today
Waxing Crescent
Oct 1
First Quarter
Oct 8
Full
Oct 15
Last Quarter
Oct 23
New

Today's Extremes

State Highs State Lows

Community

WunderPhotos

Upload Photos

1,757,960 photos uploaded!

Nearby

Air Quality

  Air Quality AQ Index Pollutant
Yesterday Good
PM2.5
Current Good
PM2.5

Snow Depth

Station Depth Elevation
Bunchgrass Meadow 0 in 5000 ft
Upper Wheeler 0 in 4400 ft
Harts Pass 0 in 6500 ft
Burnt Mountain 0 in 4200 ft
Stampede Pass 0 in 3860 ft

Earthquake Activity

City Distance Mag. Time & Date
No recent earthquake activity has been reported nearby.
Minimum magnitude displayed is 2.5.

Coastal Water Temperatures

Place Temperature
Port Townsend, WA 52.0 °F
Seattle, WA 55.0 °F
Friday Harbor, WA 51.1 °F
Tacoma, WA 55.0 °F

Nearby Weather Stations